createdAt,value
2022-12-17T00:00:13.986Z,62.60
2022-12-17T00:03:05.463Z,62.50
2022-12-17T00:06:06.964Z,62.60
2022-12-17T00:09:02.487Z,62.90
2022-12-17T00:12:04.112Z,62.70
2022-12-17T00:14:58.112Z,62.90
2022-12-17T00:18:03.005Z,62.70
2022-12-17T00:21:00.427Z,62.60
2022-12-17T00:24:01.044Z,62.40
2022-12-17T00:26:58.072Z,62.90
2022-12-17T00:29:44.590Z,62.50
2022-12-17T00:32:30.652Z,62.90
2022-12-17T00:35:35.710Z,62.90
2022-12-17T00:38:24.996Z,62.70
2022-12-17T00:41:17.055Z,62.80
2022-12-17T00:44:06.185Z,62.70
2022-12-17T00:46:58.039Z,62.90
2022-12-17T00:49:50.380Z,62.50
2022-12-17T00:55:57.481Z,62.70
2022-12-17T00:58:52.386Z,62.60
2022-12-17T01:01:46.165Z,62.60
2022-12-17T01:04:41.700Z,62.90
2022-12-17T01:08:00.289Z,62.80
2022-12-17T01:11:08.465Z,62.80
2022-12-17T01:14:00.054Z,62.70
2022-12-17T01:16:46.628Z,63.10
2022-12-17T01:19:34.147Z,63.00
2022-12-17T01:22:21.329Z,63.00
2022-12-17T01:25:09.442Z,62.90
2022-12-17T01:27:56.267Z,62.90
2022-12-17T01:30:46.896Z,62.90
2022-12-17T01:33:39.570Z,62.90
2022-12-17T01:36:28.834Z,62.90
2022-12-17T01:39:15.434Z,63.00
2022-12-17T01:42:06.275Z,63.10
2022-12-17T01:45:17.435Z,63.30
2022-12-17T01:48:09.516Z,62.90
2022-12-17T01:50:58.813Z,63.10
2022-12-17T01:53:48.931Z,63.10
2022-12-17T01:59:40.068Z,63.20
2022-12-17T02:02:27.032Z,63.30
2022-12-17T02:05:15.564Z,63.10
2022-12-17T02:08:36.612Z,63.30
2022-12-17T02:11:31.784Z,63.00
2022-12-17T02:14:25.928Z,63.20
2022-12-17T02:17:30.156Z,63.40
2022-12-17T02:20:35.339Z,63.20
2022-12-17T02:23:33.139Z,63.20
2022-12-17T02:26:32.670Z,63.30
2022-12-17T02:29:37.864Z,63.30
2022-12-17T02:32:36.680Z,63.20
2022-12-17T02:39:13.494Z,63.60
2022-12-17T02:42:04.874Z,63.40
2022-12-17T02:45:02.654Z,63.60
2022-12-17T02:47:49.431Z,63.70
2022-12-17T02:50:44.546Z,63.60
2022-12-17T02:53:41.013Z,63.50
2022-12-17T02:56:30.071Z,63.60
2022-12-17T02:59:31.233Z,63.70
2022-12-17T03:02:25.488Z,63.60
2022-12-17T03:05:43.446Z,63.70
2022-12-17T03:08:25.649Z,63.50
2022-12-17T03:11:15.680Z,63.90
2022-12-17T03:14:19.333Z,64.00
2022-12-17T03:17:20.100Z,63.80
2022-12-17T03:20:43.283Z,63.80
2022-12-17T03:23:39.028Z,63.80
2022-12-17T03:26:41.969Z,64.00
2022-12-17T03:29:30.499Z,64.00
2022-12-17T03:32:19.879Z,64.00
2022-12-17T03:35:09.551Z,64.10
2022-12-17T03:37:59.043Z,64.00
2022-12-17T03:40:45.292Z,64.20
2022-12-17T03:43:31.537Z,64.10
2022-12-17T03:46:19.311Z,64.00
2022-12-17T03:49:19.954Z,64.20
2022-12-17T03:52:28.318Z,64.00
2022-12-17T03:55:23.056Z,64.10
2022-12-17T03:58:23.185Z,64.30
2022-12-17T04:01:23.270Z,64.40
2022-12-17T04:04:09.745Z,64.00
2022-12-17T04:06:57.362Z,64.30
2022-12-17T04:09:47.407Z,64.20
2022-12-17T04:12:38.398Z,64.20
2022-12-17T04:15:28.010Z,64.10
2022-12-17T04:18:23.024Z,64.20
2022-12-17T04:21:12.328Z,63.80
2022-12-17T04:24:05.997Z,64.20
2022-12-17T04:27:01.508Z,64.60
2022-12-17T04:29:52.741Z,64.20
2022-12-17T04:32:54.508Z,64.30
2022-12-17T04:36:01.175Z,64.10
2022-12-17T04:39:05.571Z,64.00
2022-12-17T04:42:01.478Z,64.10
2022-12-17T05:00:17.926Z,63.90
2022-12-17T05:03:21.641Z,63.90
2022-12-17T05:06:36.047Z,63.90
2022-12-17T05:09:37.616Z,64.00
2022-12-17T05:12:34.166Z,64.20
2022-12-17T05:16:23.049Z,64.10
2022-12-17T05:22:12.996Z,64.20
2022-12-17T05:25:13.244Z,64.60
2022-12-17T05:28:05.455Z,64.20
2022-12-17T05:31:21.012Z,64.10
2022-12-17T05:34:27.021Z,64.00
2022-12-17T05:41:16.492Z,64.10
2022-12-17T05:44:19.658Z,63.80
2022-12-17T06:16:21.197Z,63.90
2022-12-17T06:20:03.988Z,63.80
2022-12-17T06:23:01.836Z,63.90
2022-12-17T06:25:48.777Z,64.40
2022-12-17T06:29:02.787Z,64.20
2022-12-17T06:31:54.996Z,64.50
2022-12-17T06:34:57.974Z,64.20
2022-12-17T06:37:50.159Z,64.10
2022-12-17T06:40:57.264Z,64.20
2022-12-17T06:50:47.363Z,63.80
2022-12-17T06:53:53.027Z,64.00
2022-12-17T06:57:04.585Z,64.20
2022-12-17T07:00:14.920Z,64.40
2022-12-17T07:03:22.029Z,64.00
2022-12-17T07:10:13.901Z,64.00
2022-12-17T07:13:17.469Z,64.40
2022-12-17T07:16:54.438Z,64.00
2022-12-17T07:20:03.754Z,63.90
2022-12-17T07:27:25.094Z,64.00
2022-12-17T07:30:19.174Z,64.00
2022-12-17T07:38:12.000Z,63.90
2022-12-17T07:42:40.508Z,64.10
2022-12-17T07:45:26.378Z,63.80
2022-12-17T07:48:22.249Z,64.40
2022-12-17T07:51:29.791Z,64.20
2022-12-17T07:54:18.288Z,64.30
2022-12-17T07:57:17.791Z,64.50
2022-12-17T08:01:05.085Z,64.50
2022-12-17T08:04:28.957Z,64.20
2022-12-17T08:07:38.960Z,64.10
2022-12-17T08:10:58.402Z,64.60
2022-12-17T08:13:58.804Z,64.10
2022-12-17T08:16:58.657Z,64.20
2022-12-17T08:20:05.243Z,64.70
2022-12-17T08:22:55.862Z,64.30
2022-12-17T08:26:00.555Z,64.50
2022-12-17T08:31:58.413Z,64.80
2022-12-17T08:34:54.646Z,64.70
2022-12-17T08:37:58.614Z,64.80
2022-12-17T08:40:53.428Z,64.80
2022-12-17T08:44:14.912Z,64.70
2022-12-17T08:47:06.255Z,65.00
2022-12-17T08:49:56.359Z,65.00
2022-12-17T09:01:02.370Z,64.90
2022-12-17T09:35:42.587Z,65.60
2022-12-17T09:38:31.013Z,66.10
2022-12-17T09:41:51.721Z,66.10
2022-12-17T09:44:50.743Z,66.00
2022-12-17T09:48:03.605Z,65.90
2022-12-17T09:51:07.108Z,65.70
2022-12-17T10:00:47.108Z,66.40
2022-12-17T11:14:30.356Z,66.70
2022-12-17T11:17:42.230Z,66.90
2022-12-17T11:20:45.256Z,67.30
2022-12-17T11:23:51.866Z,67.00
2022-12-17T11:31:14.457Z,67.00
2022-12-17T11:34:17.621Z,67.00
2022-12-17T11:37:19.632Z,67.00
2022-12-17T11:40:27.512Z,66.90
2022-12-17T11:43:29.524Z,66.90
2022-12-17T11:47:04.200Z,67.10
2022-12-17T11:50:15.576Z,66.80
2022-12-17T11:53:24.278Z,66.80
2022-12-17T12:00:02.281Z,66.90
2022-12-17T12:03:17.218Z,66.90
2022-12-17T12:06:20.209Z,67.00
2022-12-17T12:09:15.018Z,67.10
2022-12-17T12:12:12.447Z,67.10
2022-12-17T12:15:14.914Z,67.00
2022-12-17T12:18:08.852Z,67.00
2022-12-17T12:21:25.333Z,66.60
2022-12-17T12:24:27.515Z,66.70
2022-12-17T12:27:22.799Z,66.70
2022-12-17T12:30:20.642Z,66.70
2022-12-17T12:33:21.457Z,66.50
2022-12-17T12:37:04.584Z,66.40
2022-12-17T12:44:12.142Z,66.30
2022-12-17T12:47:06.908Z,66.70
2022-12-17T12:50:00.818Z,66.80
2022-12-17T12:52:53.803Z,66.70
2022-12-17T13:00:17.081Z,66.60
2022-12-17T13:04:05.801Z,66.40
2022-12-17T13:07:28.762Z,66.40
2022-12-17T13:10:35.700Z,66.50
2022-12-17T13:17:02.152Z,66.30
2022-12-17T13:32:25.409Z,66.00
2022-12-17T13:35:10.440Z,66.20
2022-12-17T13:37:50.657Z,65.80
2022-12-17T13:40:31.156Z,66.20
2022-12-17T13:43:00.316Z,66.10
2022-12-17T13:45:30.170Z,65.90
2022-12-17T13:48:01.590Z,66.00
2022-12-17T13:50:34.784Z,65.80
2022-12-17T13:53:29.377Z,66.30
2022-12-17T13:56:02.434Z,65.60
2022-12-17T13:58:34.305Z,66.00
2022-12-17T14:01:24.087Z,65.70
2022-12-17T14:04:08.093Z,65.60
2022-12-17T14:07:17.802Z,65.70
2022-12-17T14:10:09.318Z,65.70
2022-12-17T14:12:46.284Z,65.70
2022-12-17T14:15:25.941Z,65.80
2022-12-17T14:18:27.899Z,65.20
2022-12-17T14:21:10.556Z,65.50
2022-12-17T14:23:49.750Z,65.10
2022-12-17T14:26:56.241Z,65.30
2022-12-17T14:29:35.071Z,65.50
2022-12-17T14:32:54.043Z,65.70
2022-12-17T14:38:58.271Z,65.20
2022-12-17T14:41:57.522Z,65.40
2022-12-17T14:44:38.976Z,65.30
2022-12-17T14:47:21.716Z,65.40
2022-12-17T14:50:04.860Z,65.50
2022-12-17T14:52:45.747Z,65.30
2022-12-17T14:55:37.288Z,65.10
2022-12-17T14:58:36.096Z,65.10
2022-12-17T15:01:10.697Z,64.90
2022-12-17T15:03:46.417Z,64.90
2022-12-17T15:06:26.721Z,64.60
2022-12-17T15:09:34.635Z,64.40
2022-12-17T15:12:13.253Z,64.40
2022-12-17T15:14:46.774Z,64.70
2022-12-17T15:21:18.986Z,64.70
2022-12-17T15:24:34.803Z,64.60
2022-12-17T15:27:11.556Z,64.50
2022-12-17T15:30:15.775Z,64.70
2022-12-17T15:32:47.666Z,64.90
2022-12-17T15:35:20.939Z,64.70
2022-12-17T15:37:50.562Z,64.60
2022-12-17T15:40:21.561Z,64.80
2022-12-17T15:43:12.035Z,64.60
2022-12-17T15:45:49.096Z,64.60
2022-12-17T15:48:19.551Z,64.60
2022-12-17T15:50:48.503Z,64.50
2022-12-17T15:53:18.190Z,64.80
2022-12-17T15:59:29.497Z,64.50
2022-12-17T16:02:38.800Z,64.40
2022-12-17T16:05:37.909Z,64.70
2022-12-17T16:08:26.279Z,64.40
2022-12-17T16:11:22.188Z,64.20
2022-12-17T16:14:20.224Z,64.60
2022-12-17T16:17:17.650Z,64.20
2022-12-17T16:20:03.190Z,64.60
2022-12-17T16:22:51.720Z,64.20
2022-12-17T16:25:43.234Z,64.40
2022-12-17T16:28:38.028Z,64.00
2022-12-17T16:34:43.747Z,64.00
2022-12-17T16:37:17.801Z,64.30
2022-12-17T16:58:32.810Z,63.70
2022-12-17T17:01:14.166Z,63.70
2022-12-17T17:03:43.883Z,63.70
2022-12-17T17:06:16.484Z,63.70
2022-12-17T17:08:53.756Z,64.00
2022-12-17T17:11:31.241Z,63.90
2022-12-17T17:14:04.190Z,63.60
2022-12-17T17:16:41.535Z,63.80
2022-12-17T17:19:19.913Z,63.40
2022-12-17T17:21:53.025Z,63.60
2022-12-17T17:24:35.413Z,63.40
2022-12-17T17:27:10.355Z,63.50
2022-12-17T17:29:50.296Z,63.70
2022-12-17T17:32:19.171Z,63.50
2022-12-17T17:35:03.460Z,64.00
2022-12-17T17:37:32.351Z,64.00
2022-12-17T17:40:25.397Z,64.30
2022-12-17T20:26:38.874Z,62.50
2022-12-17T20:30:05.993Z,62.40
2022-12-17T20:33:16.875Z,62.60
2022-12-17T20:57:10.606Z,62.50
2022-12-17T21:15:11.660Z,62.90
2022-12-17T21:18:10.679Z,62.50
2022-12-17T21:21:15.835Z,62.50
2022-12-17T22:44:29.506Z,61.50
2022-12-17T23:15:25.568Z,61.40
2022-12-17T23:22:02.603Z,61.50
2022-12-17T23:28:31.695Z,61.30
2022-12-17T23:31:55.674Z,61.40
2022-12-17T23:41:46.091Z,61.70
2022-12-17T23:48:15.781Z,61.50
2022-12-17T23:51:57.782Z,61.30
